Time;durP1;ratioP1;P1;durP2;ratioP2;P2;SDS_P1;SDS_P2;PMS_P1;PMS_P2;Temp;Humidity;BMP_temperature;BMP_pressure;BME280_temperature;BME280_humidity;BME280_pressure;Samples;Min_cycle;Max_cycle;Signal;HPM_P1;HPM_P2
2022/04/09 00:01:23;;;;;;;0.50;0.50;;;7.30;64.00;;;;;;5069412;28;20497;-48
2022/04/09 00:03:49;;;;;;;0.53;0.47;;;7.20;64.80;;;;;;5066835;28;20442;-48
2022/04/09 00:06:15;;;;;;;0.50;0.50;;;7.20;65.20;;;;;;5069070;28;20203;-47
2022/04/09 00:08:40;;;;;;;0.50;0.50;;;7.10;64.80;;;;;;5066153;28;20253;-47
2022/04/09 00:11:06;;;;;;;0.50;0.40;;;7.20;64.70;;;;;;5069785;28;20208;-43
2022/04/09 00:13:32;;;;;;;0.60;0.60;;;7.10;64.80;;;;;;5070124;28;20535;-46
2022/04/09 00:15:57;;;;;;;0.53;0.53;;;7.20;65.40;;;;;;5069479;28;20184;-48
2022/04/09 00:18:23;;;;;;;0.50;0.50;;;7.30;64.90;;;;;;5066173;28;20326;-49
2022/04/09 00:20:49;;;;;;;0.50;0.40;;;7.40;64.40;;;;;;5063454;28;20224;-44
2022/04/09 00:23:15;;;;;;;0.50;0.50;;;7.40;64.10;;;;;;5067802;28;20195;-45
2022/04/09 00:25:41;;;;;;;0.50;0.50;;;7.30;64.70;;;;;;5065306;28;20434;-48
2022/04/09 00:28:06;;;;;;;0.53;0.47;;;7.20;65.10;;;;;;5064794;28;20211;-45
2022/04/09 00:30:32;;;;;;;0.43;0.40;;;7.30;64.90;;;;;;5062096;28;20204;-44
2022/04/09 00:32:57;;;;;;;0.50;0.40;;;7.30;64.90;;;;;;5068511;28;20199;-48
2022/04/09 00:35:23;;;;;;;1.30;0.87;;;7.40;64.90;;;;;;5060868;28;20192;-46
2022/04/09 00:37:48;;;;;;;0.80;0.80;;;7.40;64.60;;;;;;5064463;28;20249;-48
2022/04/09 00:40:18;;;;;;;0.70;0.70;;;7.50;64.60;;;;;;5066301;28;20198;-47
2022/04/09 00:42:44;;;;;;;0.80;0.80;;;7.60;64.50;;;;;;5067185;28;20200;-45
2022/04/09 00:45:11;;;;;;;0.80;0.80;;;7.70;63.80;;;;;;5065585;28;21008;-45
2022/04/09 00:47:36;;;;;;;1.60;0.70;;;7.70;63.70;;;;;;5069630;28;20393;-47
2022/04/09 00:50:08;;;;;;;2.90;0.60;;;7.50;64.10;;;;;;5067454;28;20522;-46
2022/04/09 00:52:38;;;;;;;0.70;0.70;;;7.50;64.50;;;;;;5066528;28;20841;-44
2022/04/09 00:55:04;;;;;;;1.17;0.70;;;7.60;64.60;;;;;;5067668;28;20867;-47
2022/04/09 00:57:34;;;;;;;0.60;0.57;;;7.60;64.20;;;;;;5062235;28;22286;-48
2022/04/09 01:00:09;;;;;;;1.53;0.70;;;7.50;64.60;;;;;;5063298;28;20500;-44
2022/04/09 01:02:43;;;;;;;0.60;0.60;;;7.40;65.00;;;;;;5068632;28;20504;-45
2022/04/09 01:05:11;;;;;;;0.73;0.73;;;7.40;65.00;;;;;;5066006;28;20484;-43
2022/04/09 01:07:36;;;;;;;1.00;0.97;;;7.60;65.00;;;;;;5068797;28;20949;-44
2022/04/09 01:10:04;;;;;;;0.90;0.90;;;7.70;64.40;;;;;;5063592;28;20503;-47
2022/04/09 01:12:30;;;;;;;1.03;1.00;;;7.70;64.00;;;;;;5069326;28;20184;-42
2022/04/09 01:14:55;;;;;;;1.30;1.20;;;7.60;64.30;;;;;;5066693;28;20442;-45
2022/04/09 01:17:21;;;;;;;0.80;0.80;;;7.50;65.40;;;;;;5067896;28;20532;-48
2022/04/09 01:19:47;;;;;;;0.77;0.77;;;7.40;65.10;;;;;;5066284;28;20238;-43
2022/04/09 01:22:12;;;;;;;0.90;0.90;;;7.50;64.90;;;;;;5067064;28;20632;-44
2022/04/09 01:24:38;;;;;;;0.80;0.80;;;7.60;64.80;;;;;;5064366;28;20192;-44
2022/04/09 01:27:04;;;;;;;0.70;0.70;;;7.60;64.60;;;;;;5067558;28;20188;-46
2022/04/09 01:29:30;;;;;;;0.73;0.73;;;7.60;64.60;;;;;;5068326;28;20271;-47
2022/04/09 01:31:55;;;;;;;0.60;0.60;;;7.50;64.90;;;;;;5066297;28;20923;-42
2022/04/09 01:34:21;;;;;;;0.90;0.90;;;7.60;64.90;;;;;;5067488;28;20502;-43
2022/04/09 01:36:47;;;;;;;1.20;1.10;;;7.80;64.30;;;;;;5065412;28;20191;-45
2022/04/09 01:39:17;;;;;;;1.03;0.83;;;7.80;63.90;;;;;;5062098;28;20227;-42
2022/04/09 01:41:43;;;;;;;1.10;1.00;;;7.70;64.10;;;;;;5067371;28;20616;-43
2022/04/09 01:44:09;;;;;;;0.90;0.90;;;7.70;64.10;;;;;;5064573;28;20457;-42
2022/04/09 01:46:34;;;;;;;1.00;0.90;;;7.70;64.20;;;;;;5061714;28;20442;-42
2022/04/09 01:49:00;;;;;;;1.37;1.27;;;7.80;63.90;;;;;;5066823;28;20188;-42
2022/04/09 01:51:26;;;;;;;1.53;1.07;;;7.80;64.00;;;;;;5064138;28;20249;-42
2022/04/09 01:53:51;;;;;;;1.60;1.40;;;7.90;63.80;;;;;;5064483;28;20982;-41
2022/04/09 01:56:17;;;;;;;1.30;1.17;;;7.90;63.40;;;;;;5067044;28;20202;-43
2022/04/09 01:58:42;;;;;;;2.27;1.10;;;7.80;63.60;;;;;;5066978;28;20286;-44
2022/04/09 02:01:08;;;;;;;1.00;1.00;;;7.90;63.90;;;;;;5064076;28;20272;-44
2022/04/09 02:03:34;;;;;;;1.73;1.60;;;7.90;63.50;;;;;;5061525;28;20570;-42
2022/04/09 02:06:00;;;;;;;1.40;1.30;;;7.80;63.80;;;;;;5068643;28;20199;-42
2022/04/09 02:08:25;;;;;;;1.63;1.53;;;7.70;64.10;;;;;;5067460;28;20450;-42
2022/04/09 02:10:51;;;;;;;1.80;1.70;;;7.70;64.40;;;;;;5063878;28;20844;-43
2022/04/09 02:13:19;;;;;;;1.70;1.60;;;7.70;64.30;;;;;;5067916;28;20196;-44
2022/04/09 02:15:45;;;;;;;5.43;1.70;;;7.60;64.50;;;;;;5063639;28;20204;-42
2022/04/09 02:18:11;;;;;;;2.20;1.77;;;7.70;64.90;;;;;;5065731;28;20448;-43
2022/04/09 02:20:36;;;;;;;2.10;1.70;;;7.80;64.50;;;;;;5064564;28;20311;-42
2022/04/09 02:23:02;;;;;;;2.40;2.20;;;7.80;64.10;;;;;;5064724;28;20271;-43
2022/04/09 02:25:27;;;;;;;1.63;1.53;;;7.80;64.20;;;;;;5063100;28;20188;-42
2022/04/09 02:27:53;;;;;;;1.90;1.70;;;7.80;64.10;;;;;;5067434;28;20199;-42
2022/04/09 02:30:19;;;;;;;1.57;1.47;;;7.80;64.30;;;;;;5066988;28;20546;-42
2022/04/09 02:32:49;;;;;;;1.77;1.50;;;7.70;64.50;;;;;;5067876;28;20198;-42
2022/04/09 02:35:16;;;;;;;1.70;1.60;;;7.80;64.60;;;;;;5068729;28;20188;-41
2022/04/09 02:37:42;;;;;;;1.33;1.23;;;7.90;64.30;;;;;;5063780;28;20449;-41
2022/04/09 02:40:08;;;;;;;2.17;1.80;;;7.80;64.20;;;;;;5072633;28;21014;-41
2022/04/09 02:42:38;;;;;;;1.93;1.57;;;7.80;64.00;;;;;;5067216;28;20263;-41
2022/04/09 02:45:05;;;;;;;2.50;1.90;;;7.80;64.30;;;;;;5068499;28;20433;-42
2022/04/09 02:47:32;;;;;;;2.40;2.20;;;7.90;64.10;;;;;;5071166;28;20473;-43
2022/04/09 02:49:59;;;;;;;2.87;2.17;;;7.90;64.10;;;;;;5067649;28;20442;-42
2022/04/09 02:52:27;;;;;;;2.20;1.70;;;8.00;64.00;;;;;;5069210;28;20442;-42
2022/04/09 02:54:53;;;;;;;2.33;2.13;;;8.00;63.80;;;;;;5067970;28;20485;-41
2022/04/09 02:57:18;;;;;;;2.50;2.30;;;8.10;63.90;;;;;;5067855;28;20454;-42
2022/04/09 02:59:44;;;;;;;2.40;2.20;;;8.20;63.50;;;;;;5067693;28;20242;-41
2022/04/09 03:02:10;;;;;;;2.50;2.30;;;8.20;64.20;;;;;;5070714;28;20219;-42
2022/04/09 03:04:35;;;;;;;2.60;2.40;;;8.30;63.00;;;;;;5066894;28;20206;-42
2022/04/09 03:07:01;;;;;;;2.90;2.30;;;8.40;62.90;;;;;;5067980;28;20196;-42
2022/04/09 03:09:26;;;;;;;2.00;1.90;;;8.50;62.60;;;;;;5069602;28;20204;-42
2022/04/09 03:11:53;;;;;;;3.60;2.83;;;8.50;62.60;;;;;;5064497;28;20287;-42
2022/04/09 03:14:20;;;;;;;2.70;2.50;;;8.40;62.60;;;;;;5068516;28;20621;-42
2022/04/09 03:16:45;;;;;;;2.73;2.53;;;8.40;62.90;;;;;;5065162;28;20446;-42
2022/04/09 03:19:11;;;;;;;3.00;2.67;;;8.40;63.40;;;;;;5064661;28;20566;-45
2022/04/09 03:21:36;;;;;;;2.43;2.23;;;8.40;63.20;;;;;;5066390;28;20663;-42
2022/04/09 03:24:02;;;;;;;2.80;2.60;;;8.30;63.40;;;;;;5067082;28;20282;-42
2022/04/09 03:26:28;;;;;;;2.50;2.30;;;8.30;63.30;;;;;;5062233;28;20196;-43
2022/04/09 03:28:53;;;;;;;3.53;2.80;;;8.40;63.30;;;;;;5068238;28;20199;-43
2022/04/09 03:31:19;;;;;;;3.03;2.83;;;8.50;63.00;;;;;;5068247;28;20192;-43
2022/04/09 03:33:47;;;;;;;2.77;2.57;;;8.50;63.30;;;;;;5069964;28;20239;-42
2022/04/09 03:36:13;;;;;;;3.00;2.80;;;8.50;63.20;;;;;;5069156;28;20230;-44
2022/04/09 03:38:41;;;;;;;3.00;2.70;;;8.50;63.40;;;;;;5067326;28;20442;-44
2022/04/09 03:41:06;;;;;;;3.00;2.77;;;8.50;63.40;;;;;;5066683;28;20934;-42
2022/04/09 03:43:32;;;;;;;3.13;2.50;;;8.40;63.50;;;;;;5065247;28;20434;-43
2022/04/09 03:45:58;;;;;;;2.70;2.50;;;8.50;63.60;;;;;;5065880;28;20196;-44
2022/04/09 03:48:23;;;;;;;2.80;2.50;;;8.60;63.30;;;;;;5067335;28;20647;-42
2022/04/09 03:50:49;;;;;;;2.80;2.60;;;8.60;63.10;;;;;;5070180;28;20219;-42
2022/04/09 03:53:19;;;;;;;3.23;2.83;;;8.70;62.90;;;;;;5069473;28;20215;-42
2022/04/09 03:55:46;;;;;;;3.23;2.93;;;8.80;62.60;;;;;;5066950;28;20685;-44
2022/04/09 03:58:14;;;;;;;2.77;2.57;;;8.70;62.60;;;;;;5067652;28;20861;-41
2022/04/09 04:00:40;;;;;;;6.57;3.03;;;8.40;63.10;;;;;;5070473;28;20477;-43
2022/04/09 04:03:07;;;;;;;2.97;2.77;;;8.30;63.90;;;;;;5066835;28;20459;-44
2022/04/09 04:05:33;;;;;;;3.40;3.10;;;8.40;63.70;;;;;;5067785;28;20454;-42
2022/04/09 04:07:59;;;;;;;3.10;2.80;;;8.40;63.70;;;;;;5060924;28;20477;-44
2022/04/09 04:10:24;;;;;;;3.73;3.27;;;8.40;63.50;;;;;;5063470;28;20530;-45
2022/04/09 04:12:50;;;;;;;4.07;3.70;;;8.60;63.30;;;;;;5067350;28;20215;-43
2022/04/09 04:15:16;;;;;;;3.70;3.40;;;8.70;62.80;;;;;;5065899;28;20241;-43
2022/04/09 04:17:43;;;;;;;5.10;4.10;;;8.50;63.00;;;;;;5066612;28;20195;-44
2022/04/09 04:20:10;;;;;;;5.33;3.90;;;8.40;63.40;;;;;;5060361;28;20326;-43
2022/04/09 04:22:35;;;;;;;6.23;4.93;;;8.50;63.20;;;;;;5066883;28;20497;-45
2022/04/09 04:25:03;;;;;;;5.47;4.40;;;8.50;63.30;;;;;;5066542;28;20434;-42
2022/04/09 04:27:29;;;;;;;7.10;5.07;;;8.40;63.50;;;;;;5065436;28;20196;-42
2022/04/09 04:30:01;;;;;;;8.07;5.07;;;8.50;63.40;;;;;;5067719;28;20449;-45
2022/04/09 04:32:27;;;;;;;6.17;5.57;;;8.50;63.20;;;;;;5066661;28;20188;-43
2022/04/09 04:34:53;;;;;;;5.70;5.13;;;8.40;63.10;;;;;;5067428;28;20532;-43
2022/04/09 04:37:19;;;;;;;7.50;5.57;;;8.60;63.00;;;;;;5066041;28;20528;-43
2022/04/09 04:39:44;;;;;;;5.90;5.40;;;8.30;62.80;;;;;;5067166;28;20250;-42
2022/04/09 04:42:10;;;;;;;7.67;6.20;;;8.30;63.20;;;;;;5059612;28;20228;-44
2022/04/09 04:44:35;;;;;;;6.97;5.40;;;8.30;63.10;;;;;;5068324;28;20726;-41
2022/04/09 04:47:01;;;;;;;9.00;6.30;;;8.50;62.90;;;;;;5065316;28;20188;-43
2022/04/09 04:49:26;;;;;;;7.20;5.50;;;8.60;62.30;;;;;;5068576;28;20203;-43
2022/04/09 04:51:52;;;;;;;9.60;7.07;;;8.70;61.90;;;;;;5067480;28;20648;-41
2022/04/09 04:54:18;;;;;;;7.00;6.30;;;8.70;61.60;;;;;;5067032;28;20187;-42
2022/04/09 04:56:43;;;;;;;7.33;6.10;;;8.70;61.80;;;;;;5068323;28;20667;-41
2022/04/09 04:59:09;;;;;;;10.33;6.37;;;8.80;61.80;;;;;;5065757;28;20269;-43
2022/04/09 05:01:37;;;;;;;7.53;6.23;;;8.90;61.60;;;;;;5061315;28;20259;-46
2022/04/09 05:04:04;;;;;;;7.87;7.17;;;8.90;61.40;;;;;;5068468;28;20525;-45
2022/04/09 05:06:29;;;;;;;7.67;6.90;;;9.00;61.20;;;;;;5064578;28;20445;-43
2022/04/09 05:08:55;;;;;;;9.70;6.97;;;9.00;60.80;;;;;;5063472;28;20438;-44
2022/04/09 05:11:21;;;;;;;10.63;6.83;;;8.90;61.00;;;;;;5065518;28;20269;-45
2022/04/09 05:13:47;;;;;;;7.33;6.53;;;8.90;61.00;;;;;;5062712;28;20437;-46
2022/04/09 05:16:13;;;;;;;10.43;6.20;;;8.90;61.00;;;;;;5065704;28;20197;-42
2022/04/09 05:18:39;;;;;;;8.10;7.23;;;8.90;61.30;;;;;;5066127;28;21047;-43
2022/04/09 05:21:05;;;;;;;7.90;6.10;;;9.10;61.60;;;;;;5062464;28;20982;-43
2022/04/09 05:23:31;;;;;;;10.63;6.50;;;9.30;61.30;;;;;;5067762;28;20242;-46
2022/04/09 05:25:57;;;;;;;8.77;5.43;;;9.40;60.80;;;;;;5066524;28;20448;-44
2022/04/09 05:28:22;;;;;;;7.83;5.70;;;9.40;60.00;;;;;;5068590;28;20525;-44
2022/04/09 05:30:50;;;;;;;7.87;5.67;;;9.50;60.10;;;;;;5065405;28;20454;-46
2022/04/09 05:33:19;;;;;;;10.13;5.83;;;9.60;59.70;;;;;;5064934;28;20283;-43
2022/04/09 05:35:45;;;;;;;7.77;5.60;;;9.60;59.10;;;;;;5065047;28;20435;-42
2022/04/09 05:38:10;;;;;;;7.17;6.47;;;9.60;59.10;;;;;;5062785;28;20972;-42
2022/04/09 05:40:37;;;;;;;8.73;6.87;;;9.60;58.90;;;;;;5064997;28;20198;-45
2022/04/09 05:43:03;;;;;;;9.60;6.80;;;9.50;58.90;;;;;;5068357;28;20341;-45
2022/04/09 05:45:29;;;;;;;7.50;5.87;;;9.50;59.10;;;;;;5065354;28;20508;-43
2022/04/09 05:47:55;;;;;;;7.00;6.40;;;9.50;59.00;;;;;;5066940;28;20941;-42
2022/04/09 05:50:20;;;;;;;7.40;5.70;;;9.50;58.80;;;;;;5072337;28;20677;-42
2022/04/09 05:52:46;;;;;;;6.20;5.47;;;9.50;58.70;;;;;;5068276;28;20188;-42
2022/04/09 05:55:12;;;;;;;6.53;5.50;;;9.40;58.30;;;;;;5058198;28;20192;-44
2022/04/09 05:57:38;;;;;;;7.30;6.10;;;9.30;58.80;;;;;;5063624;28;20188;-43
2022/04/09 06:00:06;;;;;;;7.43;6.20;;;9.30;59.00;;;;;;5060076;28;20188;-45
2022/04/09 06:02:31;;;;;;;8.70;6.43;;;9.40;58.90;;;;;;5067463;28;20485;-45
2022/04/09 06:04:57;;;;;;;7.50;6.40;;;9.40;58.70;;;;;;5062147;28;20438;-45
2022/04/09 06:07:24;;;;;;;7.73;6.47;;;9.40;58.80;;;;;;5059671;28;20273;-43
2022/04/09 06:09:51;;;;;;;6.77;6.17;;;9.30;58.90;;;;;;5068392;28;20498;-44
2022/04/09 06:12:17;;;;;;;7.20;6.43;;;9.30;59.30;;;;;;5064490;28;20795;-45
2022/04/09 06:14:43;;;;;;;7.10;6.23;;;9.30;59.10;;;;;;5067909;28;20438;-42
2022/04/09 06:17:09;;;;;;;7.70;5.47;;;9.50;58.80;;;;;;5065828;28;20471;-47
2022/04/09 06:19:35;;;;;;;8.50;7.17;;;9.50;58.40;;;;;;5068988;28;20726;-42
2022/04/09 06:22:01;;;;;;;6.53;5.93;;;9.40;58.30;;;;;;5068716;28;20587;-44
2022/04/09 06:24:27;;;;;;;8.20;6.97;;;9.10;58.40;;;;;;5067655;28;20443;-44
2022/04/09 06:26:52;;;;;;;8.80;5.80;;;8.90;59.10;;;;;;5065173;28;20481;-44
2022/04/09 06:29:18;;;;;;;10.30;6.20;;;8.80;59.40;;;;;;5063448;28;20312;-45
2022/04/09 06:31:47;;;;;;;8.50;6.23;;;8.90;59.70;;;;;;5063136;28;20949;-42
2022/04/09 06:34:17;;;;;;;6.20;5.17;;;8.90;59.30;;;;;;5060106;28;20678;-44
2022/04/09 06:36:43;;;;;;;11.40;6.60;;;9.00;59.20;;;;;;5065307;28;20441;-43
2022/04/09 06:39:09;;;;;;;7.40;6.70;;;9.10;59.10;;;;;;5070978;28;21149;-45
2022/04/09 06:44:44;;;;;;;6.93;6.23;;;9.30;59.00;;;;;;5036458;23;20706;-47
2022/04/09 06:47:09;;;;;;;6.40;5.70;;;9.50;58.60;;;;;;5009739;28;20572;-46
2022/04/09 06:49:38;;;;;;;6.20;5.30;;;9.40;58.00;;;;;;4997425;28;20297;-45
2022/04/09 06:52:05;;;;;;;8.83;5.80;;;9.60;58.00;;;;;;5011107;28;20205;-45
2022/04/09 06:54:31;;;;;;;8.80;7.17;;;9.40;57.70;;;;;;5009179;28;20483;-45
2022/04/09 06:56:56;;;;;;;8.10;6.80;;;9.50;57.60;;;;;;5009351;28;20437;-46
2022/04/09 06:59:22;;;;;;;9.57;7.60;;;9.80;57.70;;;;;;5011564;28;20712;-46
2022/04/09 07:01:47;;;;;;;8.30;7.13;;;10.00;56.50;;;;;;5009677;28;20229;-46
2022/04/09 07:04:14;;;;;;;12.03;8.40;;;10.20;56.40;;;;;;5011331;28;20190;-47
2022/04/09 07:06:39;;;;;;;10.50;7.30;;;10.40;56.40;;;;;;4999741;28;20193;-45
2022/04/09 07:09:05;;;;;;;7.17;5.83;;;10.50;55.80;;;;;;5012975;28;20506;-45
2022/04/09 07:11:31;;;;;;;6.57;5.17;;;10.50;54.90;;;;;;5012415;28;20595;-45
2022/04/09 07:13:56;;;;;;;6.80;5.90;;;10.20;54.60;;;;;;5007729;28;20255;-45
2022/04/09 07:16:22;;;;;;;7.03;5.50;;;10.00;55.10;;;;;;4998916;28;20201;-47
2022/04/09 07:18:47;;;;;;;7.20;6.50;;;10.20;55.50;;;;;;5011460;28;20671;-46
2022/04/09 07:21:13;;;;;;;7.97;6.30;;;10.40;55.30;;;;;;5010978;28;20215;-46
2022/04/09 07:23:39;;;;;;;6.77;5.37;;;10.60;55.10;;;;;;5005034;28;20217;-46
2022/04/09 07:26:04;;;;;;;7.83;5.20;;;10.60;54.60;;;;;;5012093;28;20198;-45
2022/04/09 07:28:30;;;;;;;8.20;5.00;;;10.60;54.40;;;;;;5010914;28;20190;-48
2022/04/09 07:30:55;;;;;;;6.13;4.43;;;10.60;54.60;;;;;;5011671;28;20297;-48
2022/04/09 07:33:21;;;;;;;7.03;4.63;;;10.40;54.30;;;;;;5012070;28;20198;-49
2022/04/09 07:35:46;;;;;;;5.63;4.70;;;10.20;55.00;;;;;;5011996;28;20198;-45
2022/04/09 07:38:13;;;;;;;8.40;4.23;;;9.90;55.90;;;;;;5012383;28;20734;-45
2022/04/09 07:40:38;;;;;;;6.43;5.07;;;9.80;56.80;;;;;;5011378;28;20209;-49
2022/04/09 07:43:04;;;;;;;5.23;4.60;;;9.90;56.70;;;;;;5011481;28;20460;-48
2022/04/09 07:45:29;;;;;;;5.17;4.70;;;9.80;57.40;;;;;;5017782;28;20185;-45
2022/04/09 07:47:59;;;;;;;9.50;8.60;;;10.00;56.90;;;;;;5014032;28;20198;-46
2022/04/09 07:50:25;;;;;;;8.53;5.30;;;10.00;56.20;;;;;;5011419;28;20209;-47
2022/04/09 07:52:52;;;;;;;6.90;4.80;;;10.00;56.30;;;;;;5011418;28;20429;-49
2022/04/09 07:55:17;;;;;;;6.50;4.60;;;10.00;56.30;;;;;;5011029;28;20436;-46
2022/04/09 07:57:50;;;;;;;7.20;4.70;;;10.00;56.50;;;;;;5010925;28;20421;-48
2022/04/09 08:00:17;;;;;;;6.90;4.57;;;10.10;56.80;;;;;;5011493;28;20908;-46
2022/04/09 08:02:43;;;;;;;7.30;5.20;;;10.20;56.60;;;;;;5011069;28;20623;-50
2022/04/09 08:05:11;;;;;;;7.80;4.77;;;10.40;56.50;;;;;;5011009;28;20523;-47
2022/04/09 08:07:38;;;;;;;5.00;3.67;;;10.30;55.80;;;;;;5012240;28;20264;-49
2022/04/09 08:10:04;;;;;;;5.13;4.23;;;10.10;55.80;;;;;;5011462;28;20428;-48
2022/04/09 08:12:30;;;;;;;6.30;4.33;;;9.90;57.30;;;;;;5010948;28;20425;-49
2022/04/09 08:14:56;;;;;;;5.37;3.77;;;9.80;57.30;;;;;;5011500;28;21181;-46
2022/04/09 08:17:22;;;;;;;4.70;3.60;;;9.90;57.40;;;;;;5012418;28;20277;-45
2022/04/09 08:19:47;;;;;;;7.97;4.00;;;9.90;57.20;;;;;;5023160;28;20913;-47
2022/04/09 08:22:13;;;;;;;7.27;4.40;;;9.90;56.90;;;;;;5010130;28;20222;-49
2022/04/09 08:24:41;;;;;;;6.23;4.53;;;9.90;57.50;;;;;;5010172;28;20580;-49
2022/04/09 08:27:08;;;;;;;5.97;3.57;;;10.10;56.60;;;;;;5031199;28;20432;-47
2022/04/09 08:29:34;;;;;;;6.43;4.57;;;10.20;55.80;;;;;;5030857;28;20798;-46
2022/04/09 08:32:01;;;;;;;5.43;3.87;;;10.00;56.00;;;;;;5018022;28;20421;-48
2022/04/09 08:34:29;;;;;;;6.80;3.50;;;9.70;56.90;;;;;;5009590;28;20198;-49
2022/04/09 08:36:55;;;;;;;13.87;4.37;;;9.50;57.10;;;;;;5011216;28;20429;-48
2022/04/09 08:39:21;;;;;;;8.63;4.20;;;9.50;57.70;;;;;;5010755;28;20436;-47
2022/04/09 08:41:52;;;;;;;5.30;3.23;;;9.50;57.80;;;;;;5010632;28;20476;-47
2022/04/09 08:44:18;;;;;;;5.07;3.33;;;9.50;57.30;;;;;;5010349;28;20497;-49
2022/04/09 08:46:46;;;;;;;6.43;4.27;;;9.60;57.50;;;;;;5003174;28;20928;-46
2022/04/09 08:49:13;;;;;;;7.10;3.30;;;9.80;57.80;;;;;;5023292;28;20431;-47
2022/04/09 08:51:39;;;;;;;7.17;4.23;;;10.10;56.70;;;;;;5025889;28;20428;-49
2022/04/09 08:54:05;;;;;;;8.50;4.07;;;10.10;56.00;;;;;;5010838;28;20447;-49
2022/04/09 08:56:34;;;;;;;4.33;3.87;;;10.00;56.20;;;;;;5011033;28;20433;-47
2022/04/09 08:59:00;;;;;;;7.30;4.50;;;10.10;56.50;;;;;;5010722;28;21040;-50
2022/04/09 09:01:26;;;;;;;8.80;4.47;;;10.30;56.50;;;;;;5010163;28;20484;-47
2022/04/09 09:03:52;;;;;;;9.10;4.33;;;10.00;56.50;;;;;;5010337;28;20432;-50
2022/04/09 09:06:31;;;;;;;6.57;4.90;;;10.10;56.40;;;;;;5009810;28;20439;-50
2022/04/09 09:08:59;;;;;;;6.23;4.10;;;10.10;56.30;;;;;;5010675;28;20437;-46
2022/04/09 09:11:26;;;;;;;8.13;4.43;;;10.20;56.30;;;;;;5009686;28;20771;-50
2022/04/09 09:13:55;;;;;;;8.40;4.80;;;10.40;56.80;;;;;;5010306;28;20437;-49
2022/04/09 09:16:21;;;;;;;9.53;3.63;;;10.50;56.30;;;;;;5009641;28;20510;-50
2022/04/09 09:18:51;;;;;;;5.20;4.00;;;10.40;55.20;;;;;;5006388;28;20516;-50
2022/04/09 09:21:18;;;;;;;6.90;3.80;;;10.30;55.00;;;;;;5006925;28;20490;-50
2022/04/09 09:23:44;;;;;;;8.33;3.73;;;10.50;55.50;;;;;;5003526;28;20448;-50
2022/04/09 09:26:18;;;;;;;4.50;3.03;;;10.50;55.00;;;;;;5002521;28;20445;-49
2022/04/09 09:28:56;;;;;;;7.80;3.07;;;10.70;55.40;;;;;;5004158;28;20198;-50
2022/04/09 09:31:44;;;;;;;8.73;3.73;;;10.90;55.30;;;;;;5005802;28;20547;-50
2022/04/09 09:34:17;;;;;;;13.63;4.00;;;10.70;54.70;;;;;;5005272;28;20476;-46
2022/04/09 09:36:43;;;;;;;9.40;4.33;;;10.80;56.00;;;;;;5011275;28;20530;-50
2022/04/09 09:39:11;;;;;;;7.13;4.30;;;10.80;54.80;;;;;;5010847;28;20944;-48
2022/04/09 09:41:57;;;;;;;7.17;3.67;;;10.70;54.40;;;;;;5008557;28;20488;-47
2022/04/09 09:44:27;;;;;;;10.63;4.30;;;10.90;54.20;;;;;;5007524;28;20563;-51
2022/04/09 09:46:54;;;;;;;5.53;3.57;;;11.10;54.20;;;;;;5001065;28;20437;-50
2022/04/09 09:49:22;;;;;;;6.60;3.60;;;11.10;53.80;;;;;;5010650;28;20919;-47
2022/04/09 09:52:09;;;;;;;7.67;3.63;;;11.40;54.10;;;;;;5012870;28;20433;-50
2022/04/09 09:54:59;;;;;;;7.70;3.90;;;11.70;53.40;;;;;;4996682;28;20476;-51
2022/04/09 09:57:27;;;;;;;5.43;3.27;;;12.00;52.40;;;;;;5004670;28;20455;-50
2022/04/09 09:59:55;;;;;;;7.37;2.70;;;12.10;51.60;;;;;;5006930;28;20451;-48
2022/04/09 10:02:22;;;;;;;5.00;2.77;;;12.20;52.50;;;;;;5006410;28;20844;-50
2022/04/09 10:04:49;;;;;;;5.93;3.17;;;12.10;50.40;;;;;;5009473;28;20433;-48
2022/04/09 10:07:15;;;;;;;4.40;3.17;;;12.10;50.00;;;;;;5011332;28;20949;-49
2022/04/09 10:09:41;;;;;;;7.37;3.37;;;12.10;50.30;;;;;;5002384;28;20559;-49
2022/04/09 10:12:18;;;;;;;7.70;3.40;;;12.00;49.60;;;;;;5008522;28;20590;-47
2022/04/09 10:14:48;;;;;;;9.43;3.70;;;11.80;49.90;;;;;;5007781;28;20486;-45
2022/04/09 10:17:17;;;;;;;6.97;3.23;;;11.80;51.20;;;;;;5009126;28;20455;-47
2022/04/09 10:19:44;;;;;;;7.63;3.13;;;11.90;50.00;;;;;;5008582;28;20439;-46
2022/04/09 10:22:11;;;;;;;6.67;3.03;;;12.00;49.90;;;;;;5002696;28;20492;-48
2022/04/09 10:24:38;;;;;;;5.20;2.77;;;11.90;49.60;;;;;;5003999;28;20440;-46
2022/04/09 10:27:06;;;;;;;4.17;3.20;;;12.10;49.80;;;;;;5004542;28;20433;-48
2022/04/09 10:29:48;;;;;;;5.67;2.27;;;12.30;49.60;;;;;;5008452;28;20440;-46
2022/04/09 10:32:40;;;;;;;6.93;2.90;;;12.40;49.70;;;;;;5007930;28;20939;-50
2022/04/09 10:35:21;;;;;;;3.30;2.10;;;12.40;49.00;;;;;;5000295;28;20555;-46
2022/04/09 10:38:09;;;;;;;11.70;4.07;;;12.40;49.40;;;;;;5005184;28;20436;-50
2022/04/09 10:40:50;;;;;;;8.20;2.90;;;12.40;48.40;;;;;;5004011;28;20429;-49
2022/04/09 10:43:24;;;;;;;3.00;2.73;;;12.60;49.90;;;;;;4995901;28;20478;-47
2022/04/09 10:46:02;;;;;;;4.73;2.73;;;12.70;47.40;;;;;;5006134;28;20448;-46
2022/04/09 10:48:31;;;;;;;12.70;2.50;;;13.10;47.60;;;;;;5009697;28;20440;-49
2022/04/09 10:51:06;;;;;;;5.93;2.97;;;13.40;47.20;;;;;;5008467;28;20536;-49
2022/04/09 10:53:33;;;;;;;7.83;3.00;;;13.20;46.80;;;;;;5009297;28;20598;-46
2022/04/09 10:56:24;;;;;;;3.03;2.73;;;13.50;47.70;;;;;;5007914;28;20543;-47
2022/04/09 10:59:16;;;;;;;4.47;1.87;;;13.70;45.30;;;;;;5012597;28;20526;-50
2022/04/09 11:01:51;;;;;;;9.50;2.53;;;13.80;44.60;;;;;;5004843;28;20488;-49
2022/04/09 11:04:29;;;;;;;4.10;2.20;;;13.80;44.60;;;;;;5011880;28;20452;-46
2022/04/09 11:07:04;;;;;;;4.50;2.50;;;14.00;45.20;;;;;;5006239;28;20444;-50
2022/04/09 11:10:03;;;;;;;3.90;2.17;;;13.90;44.60;;;;;;5008203;28;20941;-46
2022/04/09 11:12:38;;;;;;;7.13;2.50;;;14.00;45.30;;;;;;4977998;28;20467;-46
2022/04/09 11:15:11;;;;;;;4.20;2.47;;;14.00;45.20;;;;;;5011746;28;20424;-46
2022/04/09 11:17:45;;;;;;;5.37;2.60;;;14.30;45.50;;;;;;5011796;28;20571;-47
2022/04/09 11:20:13;;;;;;;9.73;2.80;;;14.30;44.50;;;;;;5011392;28;20584;-46
2022/04/09 11:22:47;;;;;;;8.00;3.87;;;14.60;44.70;;;;;;5012295;28;20495;-47
2022/04/09 11:25:21;;;;;;;11.53;6.23;;;14.60;43.60;;;;;;5006960;28;20444;-46
2022/04/09 11:27:47;;;;;;;2.90;2.57;;;14.50;43.70;;;;;;5012214;28;20531;-48
2022/04/09 11:30:13;;;;;;;6.47;2.87;;;14.20;43.00;;;;;;5011066;28;20951;-49
2022/04/09 11:32:39;;;;;;;6.00;3.13;;;14.00;44.00;;;;;;5011871;28;20492;-47
2022/04/09 11:35:11;;;;;;;6.27;3.33;;;14.20;44.50;;;;;;5010258;28;20520;-46
2022/04/09 11:37:49;;;;;;;5.27;2.80;;;14.10;43.90;;;;;;5010052;28;20220;-48
2022/04/09 11:40:16;;;;;;;3.30;2.10;;;14.00;43.10;;;;;;5011881;28;20463;-46
2022/04/09 11:42:49;;;;;;;4.00;1.60;;;14.00;42.80;;;;;;5020105;28;20519;-46
2022/04/09 11:45:23;;;;;;;4.10;2.73;;;14.00;42.50;;;;;;4994064;28;20524;-49
2022/04/09 11:47:54;;;;;;;7.63;3.07;;;14.20;43.60;;;;;;5008284;28;20503;-45
2022/04/09 11:50:20;;;;;;;4.70;2.87;;;14.20;42.80;;;;;;5006905;28;20441;-45
2022/04/09 11:52:46;;;;;;;4.40;3.13;;;14.00;43.50;;;;;;5008624;28;20873;-45
2022/04/09 11:55:14;;;;;;;6.77;2.90;;;14.00;44.30;;;;;;5005082;28;20429;-45
2022/04/09 11:57:51;;;;;;;5.13;2.60;;;14.10;44.70;;;;;;5010203;28;20851;-46
2022/04/09 12:00:18;;;;;;;2.43;2.23;;;14.30;44.20;;;;;;5009847;28;21003;-47
2022/04/09 12:02:44;;;;;;;3.87;2.50;;;14.30;42.10;;;;;;5009387;28;20484;-48
2022/04/09 12:05:11;;;;;;;3.80;2.47;;;14.20;41.70;;;;;;5009251;28;20448;-46
2022/04/09 12:07:47;;;;;;;3.90;3.17;;;14.00;41.60;;;;;;5019570;28;20289;-46
2022/04/09 12:10:27;;;;;;;4.43;2.13;;;14.20;43.50;;;;;;5006560;28;22300;-46
2022/04/09 12:13:02;;;;;;;3.67;2.40;;;14.40;42.90;;;;;;5003290;28;20476;-48
2022/04/09 12:15:36;;;;;;;4.00;2.70;;;14.80;42.90;;;;;;5006635;28;20448;-45
2022/04/09 12:18:04;;;;;;;3.50;2.37;;;14.50;41.10;;;;;;5000778;28;20436;-47
2022/04/09 12:20:35;;;;;;;2.53;2.33;;;14.60;40.50;;;;;;5008782;28;20959;-47
2022/04/09 12:23:01;;;;;;;8.37;2.63;;;14.50;40.90;;;;;;5008076;28;20894;-46
2022/04/09 12:25:37;;;;;;;6.77;2.83;;;14.70;42.40;;;;;;5001181;28;20971;-46
2022/04/09 12:28:04;;;;;;;6.27;2.50;;;15.00;39.90;;;;;;5004860;28;20442;-47
2022/04/09 12:30:45;;;;;;;9.67;3.60;;;15.00;39.70;;;;;;5002218;28;20453;-48
2022/04/09 12:33:12;;;;;;;4.50;2.20;;;15.10;38.90;;;;;;5005989;28;20979;-47
2022/04/09 12:35:38;;;;;;;4.30;2.43;;;15.20;38.30;;;;;;5008688;28;20429;-46
2022/04/09 12:38:04;;;;;;;4.17;2.20;;;15.30;38.70;;;;;;5006584;28;20421;-45
2022/04/09 12:40:31;;;;;;;4.77;2.03;;;15.30;39.70;;;;;;5009028;28;20491;-47
2022/04/09 12:42:57;;;;;;;5.80;2.10;;;15.60;39.30;;;;;;5001396;28;20496;-46
2022/04/09 12:45:27;;;;;;;6.40;2.53;;;15.90;38.90;;;;;;5006386;28;20514;-47
2022/04/09 12:47:56;;;;;;;3.53;2.20;;;16.00;38.60;;;;;;5008591;28;20821;-46
2022/04/09 12:50:30;;;;;;;4.30;2.10;;;15.90;37.90;;;;;;5006697;28;20449;-48
2022/04/09 12:53:01;;;;;;;4.73;3.03;;;15.70;37.60;;;;;;5008356;28;20934;-45
2022/04/09 12:55:30;;;;;;;4.23;2.10;;;15.60;37.80;;;;;;5008099;28;20835;-47
2022/04/09 12:57:56;;;;;;;4.57;2.30;;;15.30;37.60;;;;;;5009271;28;20468;-45
2022/04/09 13:00:23;;;;;;;4.40;2.67;;;15.20;38.50;;;;;;5009459;28;20938;-46